createdAt,value
2019-05-23T00:00:01.428Z,13.95
2019-05-23T00:02:32.835Z,13.45
2019-05-23T00:05:22.735Z,13.68
2019-05-23T00:07:52.548Z,14.07
2019-05-23T00:10:24.081Z,13.35
2019-05-23T00:13:01.095Z,14.83
2019-05-23T00:15:35.055Z,15.13
2019-05-23T00:18:06.070Z,15.23
2019-05-23T00:20:37.035Z,16.65
2019-05-23T00:23:08.831Z,16.07
2019-05-23T00:25:39.926Z,16.73
2019-05-23T00:28:10.772Z,15.90
2019-05-23T00:30:54.470Z,15.98
2019-05-23T00:33:25.701Z,15.63
2019-05-23T00:35:56.456Z,15.35
2019-05-23T00:38:26.953Z,16.27
2019-05-23T00:40:57.593Z,16.00
2019-05-23T00:43:27.723Z,16.25
2019-05-23T00:45:58.083Z,16.23
2019-05-23T00:48:28.495Z,16.77
2019-05-23T00:50:58.782Z,17.05
2019-05-23T00:53:29.883Z,17.77
2019-05-23T00:56:04.421Z,17.92
2019-05-23T00:58:35.185Z,17.02
2019-05-23T01:01:05.316Z,17.90
2019-05-23T01:03:35.992Z,17.17
2019-05-23T01:06:06.847Z,16.97
2019-05-23T01:08:37.341Z,16.17
2019-05-23T01:11:07.016Z,17.12
2019-05-23T01:13:38.050Z,17.52
2019-05-23T01:16:09.197Z,17.90
2019-05-23T01:18:39.305Z,16.37
2019-05-23T01:21:19.963Z,17.00
2019-05-23T01:23:51.330Z,15.85
2019-05-23T01:26:22.677Z,16.62
2019-05-23T01:28:52.310Z,16.77
2019-05-23T01:31:23.916Z,16.30
2019-05-23T01:33:56.599Z,17.75
2019-05-23T01:36:26.084Z,17.02
2019-05-23T01:38:55.926Z,17.55
2019-05-23T01:41:26.806Z,17.82
2019-05-23T01:43:56.214Z,17.50
2019-05-23T01:46:26.497Z,17.50
2019-05-23T01:48:56.097Z,18.32
2019-05-23T01:51:26.189Z,17.23
2019-05-23T01:53:56.654Z,18.30
2019-05-23T01:56:27.243Z,17.00
2019-05-23T01:58:57.114Z,17.48
2019-05-23T02:01:27.313Z,18.60
2019-05-23T02:03:56.756Z,17.73
2019-05-23T02:06:26.535Z,18.48
2019-05-23T02:08:56.853Z,19.48
2019-05-23T02:11:27.601Z,18.87
2019-05-23T02:13:57.165Z,18.62
2019-05-23T02:16:26.854Z,17.00
2019-05-23T02:18:56.525Z,18.27
2019-05-23T02:21:28.510Z,17.65
2019-05-23T02:23:58.433Z,16.50
2019-05-23T02:26:28.953Z,17.70
2019-05-23T02:28:59.896Z,16.57
2019-05-23T02:31:29.208Z,17.07
2019-05-23T02:33:59.273Z,17.42
2019-05-23T02:36:30.756Z,16.82
2019-05-23T02:39:01.715Z,17.23
2019-05-23T02:41:33.867Z,17.07
2019-05-23T02:44:05.812Z,18.48
2019-05-23T02:46:54.063Z,18.15
2019-05-23T02:49:28.272Z,17.15
2019-05-23T02:52:01.577Z,16.82
2019-05-23T02:54:37.470Z,16.67
2019-05-23T02:57:08.137Z,16.75
2019-05-23T02:59:49.667Z,16.80
2019-05-23T03:02:55.116Z,17.12
2019-05-23T03:05:26.106Z,17.17
2019-05-23T03:07:58.893Z,17.20
2019-05-23T03:10:32.834Z,17.85
2019-05-23T03:13:05.271Z,16.80
2019-05-23T03:15:37.187Z,17.85
2019-05-23T03:18:14.000Z,17.65
2019-05-23T03:20:43.926Z,17.90
2019-05-23T03:23:18.833Z,17.50
2019-05-23T03:26:03.211Z,18.12
2019-05-23T03:28:39.322Z,17.07
2019-05-23T03:31:33.418Z,16.97
2019-05-23T03:33:49.624Z,16.73
2019-05-23T03:36:20.422Z,16.75
2019-05-23T03:38:51.367Z,17.02
2019-05-23T03:41:21.793Z,15.78
2019-05-23T03:43:52.359Z,16.27
2019-05-23T03:46:23.325Z,15.55
2019-05-23T03:48:56.389Z,15.23
2019-05-23T03:51:26.646Z,15.63
2019-05-23T03:53:57.313Z,15.28
2019-05-23T03:56:27.684Z,15.85
2019-05-23T03:58:58.531Z,15.48
2019-05-23T04:01:46.258Z,15.60
2019-05-23T04:04:03.352Z,16.87
2019-05-23T04:06:34.105Z,16.23
2019-05-23T04:09:06.476Z,15.80
2019-05-23T04:11:37.013Z,15.88
2019-05-23T04:14:08.507Z,15.70
2019-05-23T04:16:38.089Z,14.78
2019-05-23T04:19:07.458Z,16.12
2019-05-23T04:21:37.115Z,15.30
2019-05-23T04:24:06.812Z,15.65
2019-05-23T04:26:36.507Z,15.58
2019-05-23T04:29:06.154Z,15.13
2019-05-23T04:31:35.521Z,15.10
2019-05-23T04:34:04.876Z,15.03
2019-05-23T04:36:34.193Z,14.38
2019-05-23T04:39:05.425Z,14.93
2019-05-23T04:41:34.850Z,15.00
2019-05-23T04:44:05.570Z,15.43
2019-05-23T04:46:36.443Z,15.40
2019-05-23T04:49:08.043Z,15.20
2019-05-23T04:51:37.499Z,15.70
2019-05-23T04:54:07.761Z,17.55
2019-05-23T04:56:37.422Z,16.17
2019-05-23T04:59:07.388Z,16.45
2019-05-23T05:01:39.078Z,16.12
2019-05-23T05:04:09.394Z,16.32
2019-05-23T05:06:39.441Z,16.80
2019-05-23T05:09:11.484Z,17.15
2019-05-23T05:11:41.469Z,17.70
2019-05-23T05:14:10.773Z,18.45
2019-05-23T05:16:40.655Z,18.02
2019-05-23T05:19:10.325Z,18.42
2019-05-23T05:21:40.513Z,19.12
2019-05-23T05:24:10.086Z,19.55
2019-05-23T05:26:40.276Z,20.97
2019-05-23T05:29:10.518Z,20.43
2019-05-23T05:31:39.867Z,20.85
2019-05-23T05:34:12.397Z,20.65
2019-05-23T05:36:42.177Z,20.77
2019-05-23T05:39:13.221Z,20.45
2019-05-23T05:41:43.558Z,20.32
2019-05-23T05:44:13.749Z,20.92
2019-05-23T05:46:43.474Z,20.23
2019-05-23T05:49:15.469Z,19.73
2019-05-23T05:51:44.684Z,20.37
2019-05-23T05:54:13.999Z,21.87
2019-05-23T05:56:43.685Z,20.65
2019-05-23T05:59:13.225Z,23.32
2019-05-23T06:01:43.675Z,23.10
2019-05-23T06:04:13.066Z,23.52
2019-05-23T06:06:44.611Z,23.12
2019-05-23T06:09:16.038Z,26.27
2019-05-23T06:11:45.799Z,27.07
2019-05-23T06:14:15.395Z,25.17
2019-05-23T06:16:45.701Z,26.62
2019-05-23T06:19:15.377Z,28.25
2019-05-23T06:21:46.720Z,27.93
2019-05-23T06:24:16.601Z,28.27
2019-05-23T06:26:46.053Z,28.70
2019-05-23T06:29:15.818Z,28.70
2019-05-23T06:31:45.497Z,27.75
2019-05-23T06:34:15.074Z,28.23
2019-05-23T06:36:44.684Z,29.05
2019-05-23T06:39:14.856Z,29.07
2019-05-23T06:41:46.124Z,28.80
2019-05-23T06:44:17.591Z,28.12
2019-05-23T06:46:47.957Z,29.12
2019-05-23T06:49:17.724Z,28.23
2019-05-23T06:51:47.038Z,26.93
2019-05-23T06:54:16.418Z,28.45
2019-05-23T06:56:46.296Z,28.85
2019-05-23T06:59:15.753Z,29.02
2019-05-23T07:01:45.207Z,27.95
2019-05-23T07:04:15.220Z,27.58
2019-05-23T07:06:45.431Z,25.95
2019-05-23T07:09:19.326Z,25.92
2019-05-23T07:11:49.389Z,26.20
2019-05-23T07:14:18.850Z,26.82
2019-05-23T07:16:50.365Z,25.52
2019-05-23T07:19:21.407Z,25.25
2019-05-23T07:21:50.723Z,25.20
2019-05-23T07:24:20.715Z,23.73
2019-05-23T07:26:50.095Z,24.47
2019-05-23T07:29:19.950Z,22.05
2019-05-23T07:31:49.924Z,23.77
2019-05-23T07:34:20.634Z,24.23
2019-05-23T07:36:50.345Z,20.50
2019-05-23T07:39:21.175Z,21.77
2019-05-23T07:41:51.402Z,22.05
2019-05-23T07:44:21.582Z,20.43
2019-05-23T07:46:51.147Z,19.23
2019-05-23T07:49:20.484Z,19.25
2019-05-23T07:51:49.904Z,17.95
2019-05-23T07:54:20.848Z,17.05
2019-05-23T07:56:50.490Z,17.15
2019-05-23T07:59:20.184Z,20.12
2019-05-23T08:01:53.250Z,14.10
2019-05-23T08:04:23.016Z,12.33
2019-05-23T08:06:52.670Z,13.08
2019-05-23T08:09:22.811Z,14.87
2019-05-23T08:11:52.511Z,16.45
2019-05-23T08:14:21.823Z,13.32
2019-05-23T08:16:53.653Z,9.78
2019-05-23T08:19:23.431Z,8.28
2019-05-23T08:21:53.175Z,8.80
2019-05-23T08:24:22.898Z,8.30
2019-05-23T08:26:53.514Z,9.50
2019-05-23T08:29:25.839Z,7.60
2019-05-23T08:31:54.186Z,7.00
2019-05-23T08:34:40.023Z,8.38
2019-05-23T08:36:54.856Z,9.13
2019-05-23T08:39:25.232Z,7.70
2019-05-23T08:41:55.390Z,7.87
2019-05-23T08:44:25.110Z,7.80
2019-05-23T08:46:54.504Z,8.25
2019-05-23T08:49:24.552Z,7.67
2019-05-23T08:51:55.074Z,7.08
2019-05-23T08:54:24.384Z,6.87
2019-05-23T08:56:53.759Z,5.95
2019-05-23T08:59:23.630Z,5.97
2019-05-23T09:01:54.694Z,5.97
2019-05-23T09:04:24.374Z,5.90
2019-05-23T09:06:54.261Z,7.03
2019-05-23T09:09:29.732Z,6.05
2019-05-23T09:11:56.283Z,6.37
2019-05-23T09:14:25.702Z,6.30
2019-05-23T09:16:55.731Z,6.05
2019-05-23T09:19:25.721Z,6.37
2019-05-23T09:21:57.939Z,6.15
2019-05-23T09:24:27.046Z,7.15
2019-05-23T09:26:56.435Z,7.75
2019-05-23T09:29:26.233Z,8.50
2019-05-23T09:31:55.541Z,8.38
2019-05-23T09:34:25.731Z,9.40
2019-05-23T09:36:55.032Z,8.53
2019-05-23T09:39:25.341Z,8.38
2019-05-23T09:41:54.900Z,8.90
2019-05-23T09:44:24.296Z,10.10
2019-05-23T09:46:53.588Z,10.88
2019-05-23T09:49:22.969Z,10.45
2019-05-23T09:51:56.122Z,10.08
2019-05-23T09:54:23.625Z,8.78
2019-05-23T09:56:53.537Z,9.53
2019-05-23T09:59:22.861Z,11.22
2019-05-23T10:01:52.347Z,11.12
2019-05-23T10:04:21.940Z,11.50
2019-05-23T10:06:51.251Z,12.23
2019-05-23T10:09:20.941Z,12.58
2019-05-23T10:11:50.663Z,13.15
2019-05-23T10:14:24.699Z,14.30
2019-05-23T10:16:56.906Z,12.47
2019-05-23T10:19:26.855Z,11.88
2019-05-23T10:21:56.162Z,12.53
2019-05-23T10:24:25.757Z,11.33
2019-05-23T10:26:55.053Z,12.47
2019-05-23T10:29:24.364Z,10.75
2019-05-23T10:31:54.137Z,10.32
2019-05-23T10:34:23.539Z,8.10
2019-05-23T10:36:52.893Z,6.28
2019-05-23T10:39:22.707Z,6.75
2019-05-23T10:41:52.017Z,6.78
2019-05-23T10:44:21.406Z,7.00
2019-05-23T10:46:50.705Z,6.30
2019-05-23T10:49:20.825Z,5.90
2019-05-23T10:51:50.510Z,5.30
2019-05-23T10:54:19.907Z,5.17
2019-05-23T10:56:49.195Z,4.90
2019-05-23T10:59:18.829Z,4.62
2019-05-23T11:01:49.134Z,4.80
2019-05-23T11:04:18.718Z,4.97
2019-05-23T11:06:49.189Z,5.00
2019-05-23T11:09:36.227Z,4.35
2019-05-23T11:11:50.861Z,4.15
2019-05-23T11:14:20.177Z,3.92
2019-05-23T11:16:49.767Z,4.30
2019-05-23T11:19:19.702Z,3.98
2019-05-23T11:21:49.414Z,5.03
2019-05-23T11:24:18.736Z,4.05
2019-05-23T11:26:48.035Z,5.17
2019-05-23T11:29:17.418Z,6.12
2019-05-23T11:31:47.101Z,6.00
2019-05-23T11:34:16.581Z,5.25
2019-05-23T11:36:45.883Z,5.12
2019-05-23T11:39:16.600Z,5.83
2019-05-23T11:41:46.450Z,5.58
2019-05-23T11:44:16.058Z,4.95
2019-05-23T11:46:46.603Z,5.00
2019-05-23T11:49:16.177Z,5.65
2019-05-23T11:51:46.170Z,5.60
2019-05-23T11:54:15.834Z,5.28
2019-05-23T11:56:45.691Z,5.78
2019-05-23T11:59:14.986Z,6.10
2019-05-23T12:01:51.622Z,5.40
2019-05-23T12:04:22.200Z,5.62
2019-05-23T12:06:55.873Z,5.87
2019-05-23T12:09:24.725Z,4.78
2019-05-23T12:11:54.103Z,5.60
2019-05-23T12:14:23.414Z,5.60
2019-05-23T12:16:55.139Z,4.65
2019-05-23T12:19:24.947Z,4.78
2019-05-23T12:21:57.871Z,4.37
2019-05-23T12:24:27.242Z,4.90
2019-05-23T12:26:56.903Z,4.78
2019-05-23T12:29:26.833Z,4.08
2019-05-23T12:31:57.104Z,4.30
2019-05-23T12:34:26.525Z,4.47
2019-05-23T12:37:16.789Z,4.50
2019-05-23T12:39:27.321Z,4.42
2019-05-23T12:41:56.659Z,3.75
2019-05-23T12:44:26.054Z,3.98
2019-05-23T12:46:55.409Z,4.03
2019-05-23T12:49:26.344Z,3.55
2019-05-23T12:51:57.270Z,4.17
2019-05-23T12:54:26.633Z,3.77
2019-05-23T12:56:56.385Z,3.98
2019-05-23T12:59:26.637Z,4.05
2019-05-23T13:01:57.604Z,4.60
2019-05-23T13:04:27.037Z,4.00
2019-05-23T13:06:56.349Z,3.80
2019-05-23T13:09:25.672Z,4.08
2019-05-23T13:11:57.020Z,3.90
2019-05-23T13:14:26.484Z,4.10
2019-05-23T13:17:00.344Z,3.87
2019-05-23T13:19:27.546Z,3.85
2019-05-23T13:21:57.222Z,4.05
2019-05-23T13:24:27.386Z,4.30
2019-05-23T13:26:57.333Z,3.80
2019-05-23T13:29:26.768Z,3.72
2019-05-23T13:31:56.080Z,4.08
2019-05-23T13:34:25.716Z,4.20
2019-05-23T13:36:55.545Z,4.70
2019-05-23T13:39:25.405Z,3.67
2019-05-23T13:41:55.035Z,3.75
2019-05-23T13:44:33.807Z,3.85
2019-05-23T13:46:55.745Z,3.40
2019-05-23T13:49:25.653Z,3.33
2019-05-23T13:51:55.243Z,3.90
2019-05-23T13:54:24.837Z,3.58
2019-05-23T13:56:55.099Z,3.45
2019-05-23T13:59:24.482Z,3.60
2019-05-23T14:01:54.648Z,4.12
2019-05-23T14:04:24.481Z,3.42
2019-05-23T14:06:53.863Z,3.62
2019-05-23T14:09:25.290Z,3.80
2019-05-23T14:12:19.951Z,4.15
2019-05-23T14:14:26.015Z,4.22
2019-05-23T14:16:57.318Z,3.77
2019-05-23T14:19:29.335Z,4.10
2019-05-23T14:21:58.070Z,4.10
2019-05-23T14:24:27.779Z,3.62
2019-05-23T14:27:14.946Z,3.90
2019-05-23T14:29:44.498Z,4.25
2019-05-23T14:32:21.196Z,4.20
2019-05-23T14:34:52.282Z,3.87
2019-05-23T14:37:24.217Z,3.92
2019-05-23T14:39:54.970Z,3.10
2019-05-23T14:42:28.576Z,3.98
2019-05-23T14:45:00.791Z,3.65
2019-05-23T14:47:47.678Z,3.72
2019-05-23T14:50:27.978Z,3.70
2019-05-23T14:52:59.239Z,3.65
2019-05-23T14:55:29.218Z,3.35
2019-05-23T14:57:59.368Z,2.60
2019-05-23T15:00:29.931Z,2.67
2019-05-23T15:02:59.311Z,2.80
2019-05-23T15:05:29.705Z,3.22
2019-05-23T15:07:59.153Z,2.80
2019-05-23T15:10:29.050Z,2.85
2019-05-23T15:12:58.837Z,3.00
2019-05-23T15:15:28.346Z,3.10
2019-05-23T15:17:57.667Z,2.80
2019-05-23T15:23:15.384Z,3.22
2019-05-23T15:25:44.681Z,3.10
2019-05-23T15:28:14.383Z,3.12
2019-05-23T15:30:43.890Z,2.77
2019-05-23T15:33:13.266Z,2.67
2019-05-23T15:35:43.179Z,2.50
2019-05-23T15:38:12.509Z,3.02
2019-05-23T15:40:41.774Z,2.92
2019-05-23T15:43:11.067Z,2.55
2019-05-23T15:45:40.459Z,2.77
2019-05-23T15:48:10.082Z,2.87
2019-05-23T15:50:53.094Z,2.98
2019-05-23T15:53:33.277Z,2.83
2019-05-23T15:56:25.854Z,3.05
2019-05-23T15:58:51.759Z,3.15
2019-05-23T16:01:25.980Z,3.35
2019-05-23T16:04:06.125Z,3.35
2019-05-23T16:06:36.495Z,3.02
2019-05-23T16:09:27.724Z,3.08
2019-05-23T16:11:43.368Z,3.60
2019-05-23T16:14:12.806Z,4.22
2019-05-23T16:16:42.767Z,3.90
2019-05-23T16:19:13.480Z,3.27
2019-05-23T16:21:43.128Z,3.52
2019-05-23T16:24:12.986Z,3.27
2019-05-23T16:26:42.622Z,3.00
2019-05-23T16:29:14.080Z,3.25
2019-05-23T16:31:43.653Z,2.92
2019-05-23T16:34:12.940Z,3.02
2019-05-23T16:36:42.313Z,3.08
2019-05-23T16:39:11.629Z,3.67
2019-05-23T16:41:41.194Z,3.87
2019-05-23T16:44:10.764Z,4.00
2019-05-23T16:46:40.448Z,4.00
2019-05-23T16:49:09.750Z,4.67
2019-05-23T16:51:39.115Z,4.70
2019-05-23T16:54:08.860Z,3.98
2019-05-23T16:56:39.803Z,3.50
2019-05-23T16:59:16.919Z,4.10
2019-05-23T17:02:00.460Z,4.12
2019-05-23T17:04:29.395Z,4.75
2019-05-23T17:07:00.418Z,4.83
2019-05-23T17:09:40.326Z,4.45
2019-05-23T17:12:17.063Z,5.33
2019-05-23T17:15:06.386Z,4.53
2019-05-23T17:18:00.706Z,4.58
2019-05-23T17:20:22.048Z,4.90
2019-05-23T17:22:55.804Z,4.03
2019-05-23T17:25:26.877Z,4.12
2019-05-23T17:27:57.876Z,3.92
2019-05-23T17:30:37.773Z,4.30
2019-05-23T17:33:08.488Z,4.22
2019-05-23T17:35:39.079Z,4.33
2019-05-23T17:38:08.458Z,4.30
2019-05-23T17:40:37.821Z,4.15
2019-05-23T17:43:07.941Z,4.10
2019-05-23T17:45:37.741Z,4.70
2019-05-23T17:48:08.628Z,4.60
2019-05-23T17:50:38.024Z,3.98
2019-05-23T17:53:07.472Z,3.90
2019-05-23T17:55:36.768Z,3.37
2019-05-23T17:58:06.502Z,3.40
2019-05-23T18:00:43.517Z,5.12
2019-05-23T18:03:13.657Z,4.70
2019-05-23T18:05:42.967Z,5.10
2019-05-23T18:08:13.104Z,4.87
2019-05-23T18:10:45.702Z,4.53
2019-05-23T18:13:15.162Z,4.92
2019-05-23T18:15:45.914Z,5.58
2019-05-23T18:18:16.374Z,4.90
2019-05-23T18:20:46.465Z,4.97
2019-05-23T18:23:16.629Z,3.75
2019-05-23T18:25:46.505Z,4.17
2019-05-23T18:28:15.878Z,3.87
2019-05-23T18:30:47.140Z,3.45
2019-05-23T18:33:18.166Z,4.12
2019-05-23T18:35:49.203Z,3.62
2019-05-23T18:38:18.879Z,3.83
2019-05-23T18:41:01.529Z,3.40
2019-05-23T18:43:19.606Z,3.42
2019-05-23T18:45:50.611Z,3.85
2019-05-23T18:48:20.324Z,3.30
2019-05-23T18:50:50.253Z,2.85
2019-05-23T18:53:19.881Z,2.95
2019-05-23T18:55:49.865Z,3.72
2019-05-23T18:58:20.433Z,2.90
2019-05-23T19:01:03.044Z,3.08
2019-05-23T19:03:33.012Z,2.87
2019-05-23T19:06:02.727Z,2.80
2019-05-23T19:08:32.608Z,2.80
2019-05-23T19:11:19.013Z,2.75
2019-05-23T19:13:33.012Z,2.80
2019-05-23T19:16:02.334Z,3.00
2019-05-23T19:18:32.542Z,3.10
2019-05-23T19:21:02.547Z,3.12
2019-05-23T19:23:32.388Z,3.10
2019-05-23T19:26:01.982Z,4.28
2019-05-23T19:28:31.891Z,3.80
2019-05-23T19:31:01.220Z,3.35
2019-05-23T19:33:30.588Z,3.50
2019-05-23T19:36:00.074Z,3.45
2019-05-23T19:38:29.416Z,3.90
2019-05-23T19:40:58.997Z,3.90
2019-05-23T19:43:28.370Z,4.03
2019-05-23T19:45:57.678Z,3.55
2019-05-23T19:48:27.620Z,3.50
2019-05-23T19:50:56.933Z,3.67
2019-05-23T19:53:27.068Z,3.67
2019-05-23T19:55:56.727Z,3.30
2019-05-23T19:58:26.643Z,3.37
2019-05-23T20:00:57.200Z,3.30
2019-05-23T20:03:26.563Z,3.17
2019-05-23T20:05:57.513Z,3.50
2019-05-23T20:08:27.113Z,4.30
2019-05-23T20:10:57.072Z,2.95
2019-05-23T20:13:26.993Z,3.85
2019-05-23T20:15:56.621Z,4.42
2019-05-23T20:18:26.191Z,4.12
2019-05-23T20:20:55.513Z,3.87
2019-05-23T20:23:24.818Z,3.40
2019-05-23T20:25:54.147Z,3.77
2019-05-23T20:28:24.668Z,4.90
2019-05-23T20:30:54.486Z,4.75
2019-05-23T20:33:24.192Z,4.33
2019-05-23T20:35:53.500Z,7.10
2019-05-23T20:38:24.537Z,5.17
2019-05-23T20:40:54.284Z,3.52
2019-05-23T20:43:24.391Z,3.60
2019-05-23T20:45:55.079Z,5.33
2019-05-23T20:48:25.169Z,4.53
2019-05-23T20:50:55.095Z,3.75
2019-05-23T20:53:24.484Z,3.47
2019-05-23T20:55:53.810Z,3.72
2019-05-23T20:58:23.483Z,3.65
2019-05-23T21:00:56.854Z,3.50
2019-05-23T21:03:27.414Z,3.85
2019-05-23T21:05:56.745Z,3.58
2019-05-23T21:08:26.523Z,3.20
2019-05-23T21:10:56.063Z,3.52
2019-05-23T21:13:25.432Z,3.95
2019-05-23T21:15:54.772Z,9.35
2019-05-23T21:18:24.154Z,12.00
2019-05-23T21:20:53.461Z,4.20
2019-05-23T21:23:22.785Z,3.83
2019-05-23T21:25:56.634Z,3.60
2019-05-23T21:28:25.963Z,3.50
2019-05-23T21:30:55.408Z,3.58
2019-05-23T21:33:25.120Z,4.20
2019-05-23T21:35:54.842Z,3.58
2019-05-23T21:38:24.709Z,3.67
2019-05-23T21:40:54.094Z,4.03
2019-05-23T21:43:23.832Z,4.17
2019-05-23T21:45:53.508Z,4.17
2019-05-23T21:48:23.013Z,4.00
2019-05-23T21:50:52.377Z,3.72
2019-05-23T21:53:21.674Z,4.20
2019-05-23T21:55:51.066Z,3.75
2019-05-23T21:58:20.447Z,3.85
2019-05-23T22:01:07.620Z,3.80
2019-05-23T22:04:00.975Z,4.20
2019-05-23T22:06:40.788Z,4.22
2019-05-23T22:09:13.304Z,5.72
2019-05-23T22:11:42.962Z,4.42
2019-05-23T22:14:12.347Z,4.03
2019-05-23T22:16:41.900Z,4.25
2019-05-23T22:19:13.270Z,4.37
2019-05-23T22:21:42.608Z,4.37
2019-05-23T22:24:13.296Z,4.50
2019-05-23T22:26:42.751Z,4.50
2019-05-23T22:29:12.126Z,4.45
2019-05-23T22:31:41.445Z,4.67
2019-05-23T22:34:28.550Z,4.60
2019-05-23T22:36:59.039Z,5.12
2019-05-23T22:39:28.652Z,5.03
2019-05-23T22:41:58.259Z,4.47
2019-05-23T22:44:28.174Z,4.25
2019-05-23T22:46:57.959Z,4.15
2019-05-23T22:49:27.620Z,4.12
2019-05-23T22:51:57.198Z,3.65
2019-05-23T22:54:26.562Z,4.30
2019-05-23T22:56:55.871Z,4.15
2019-05-23T22:59:25.243Z,4.75
2019-05-23T23:02:10.952Z,4.42
2019-05-23T23:04:40.256Z,4.53
2019-05-23T23:07:09.650Z,4.33
2019-05-23T23:09:40.989Z,4.40
2019-05-23T23:12:10.559Z,4.03
2019-05-23T23:14:39.911Z,4.10
2019-05-23T23:17:09.358Z,4.20
2019-05-23T23:19:39.056Z,4.08
2019-05-23T23:22:12.047Z,4.42
2019-05-23T23:24:44.571Z,4.40
2019-05-23T23:27:15.532Z,4.20
2019-05-23T23:29:45.249Z,4.45
2019-05-23T23:32:14.875Z,4.55
2019-05-23T23:34:44.331Z,5.33
2019-05-23T23:37:13.637Z,5.60
2019-05-23T23:39:43.026Z,5.42
2019-05-23T23:42:12.658Z,5.30
2019-05-23T23:44:41.527Z,5.10
2019-05-23T23:47:28.596Z,5.05
2019-05-23T23:50:15.825Z,5.30
2019-05-23T23:53:02.921Z,5.05
2019-05-23T23:55:49.755Z,5.10
2019-05-23T23:58:18.386Z,5.22
